Other Surface Observations
Issued by NWS Great Falls, MT

Home | Current Version | Previous Version | Text Only | Print | Product List | Glossary On
Versions: 1 2 3 4 5 6 7 8 9 10 11 12 13 14 15 16 17 18 19 20 21 22 23 24 25 26 27 28 29 30 31 32 33 34 35 36 37 38 39 40 41 42 43 44 45 46 47 48 49 50
482
SXUS55 KTFX 100609
OSOTFX

AREA AWOS OBSERVATIONS
NATIONAL WEATHER SERVICE GREAT FALLS MT
1109 PM MST Fri Dec 09 2016

METAR K6S8 100555Z AUTO 34004KT 1SM M14/M19 A3003 RMK A01 T11441194
METAR K6S8 100455Z AUTO 36004KT 3SM M14/M19 A3004 RMK A01 T11381188
METAR K7S0 100555Z AUTO 19000KT 1 1/2SM M11/M14 A2999 RMK A01 T11111138
METAR K7S1 100555Z AUTO 32000KT 10SM M11/M15 A2991 RMK A01 T11051150
METAR K97M 100555Z AUTO 12014KT 40SM M18/M23 A3009 RMK A01 T11831227
METAR K9S2 100555Z AUTO 16001KT 40SM M23/M30 A3028 RMK A01 T12331300
METAR K9S5 100555Z AUTO 16000KT 5SM M12/M33 A2996 RMK A01 T11161333
METAR KRPX 100555Z AUTO 09003KT 7SM M14/M19 A2997 RMK A01 T11441188
METAR KRPX 100455Z AUTO 07001KT 40SM M15/M19 A3000 RMK A01 T11501194
METAR KS01 100555Z AUTO 06004KT 40SM M18/M20 A3001 RMK A01 T11771200
METAR KS34 100555Z AUTO 06000KT 1 1/2SM M09/M13 A3002 RMK A01 T10941133
METAR KTHM 100555Z AUTO 06006KT 2 1/2SM M09/M11 A3003 RMK A01 T10881111
METAR KTHM 100455Z AUTO 06010KT 1 1/4SM M09/M11 A3003 RMK A01 T10881111



USA.gov is the U.S. government's official web portal to all federal, state and local government web resources and services.